Time;durP1;ratioP1;P1;durP2;ratioP2;P2;SDS_P1;SDS_P2;PMS_P1;PMS_P2;Temp;Humidity;BMP_temperature;BMP_pressure;BME280_temperature;BME280_humidity;BME280_pressure;Samples;Min_cycle;Max_cycle;Signal;HPM_P1;HPM_P2
2023/03/11 00:00:22;;;;;;;6.50;1.45;;;;;;;5.23;61.78;100618.13;4892373;28;114618;-76
2023/03/11 00:02:52;;;;;;;13.50;2.08;;;;;;;5.20;61.91;100619.09;4880281;28;113960;-77
2023/03/11 00:05:28;;;;;;;7.80;1.77;;;;;;;5.16;61.86;100622.72;4892447;28;123647;-77
2023/03/11 00:07:55;;;;;;;6.35;1.42;;;;;;;5.15;61.87;100620.97;4875686;28;123492;-77
2023/03/11 00:10:35;;;;;;;7.47;1.60;;;;;;;5.10;61.64;100617.59;4892100;28;114335;-77
2023/03/11 00:13:03;;;;;;;5.00;1.50;;;;;;;5.08;61.89;100619.41;4876177;28;114677;-76
2023/03/11 00:15:31;;;;;;;10.73;1.83;;;;;;;5.05;61.72;100624.75;4876056;28;121989;-77
2023/03/11 00:17:59;;;;;;;6.15;1.55;;;;;;;5.02;61.58;100624.81;4875835;28;124027;-77
2023/03/11 00:20:29;;;;;;;11.18;1.77;;;;;;;4.98;61.31;100629.28;4874972;28;115336;-77
2023/03/11 00:22:57;;;;;;;7.57;1.63;;;;;;;4.95;61.61;100628.50;4875571;28;114497;-77
2023/03/11 00:25:27;;;;;;;4.78;1.58;;;;;;;4.93;61.21;100635.53;4873671;28;124064;-77
2023/03/11 00:27:55;;;;;;;7.50;1.40;;;;;;;4.90;61.47;100635.63;4872976;28;124126;-77
2023/03/11 00:30:23;;;;;;;5.07;1.50;;;;;;;4.85;61.27;100633.97;4872591;28;114135;-77
2023/03/11 00:32:54;;;;;;;6.72;1.52;;;;;;;4.83;61.39;100641.03;4873806;28;113073;-76
2023/03/11 00:35:25;;;;;;;6.05;1.50;;;;;;;4.79;61.35;100647.25;4872576;28;123482;-76
2023/03/11 00:37:55;;;;;;;10.30;1.63;;;;;;;4.76;61.02;100655.19;4857893;28;124647;-76
2023/03/11 00:40:24;;;;;;;10.73;1.65;;;;;;;4.73;61.36;100660.53;4892195;28;114327;-76
2023/03/11 00:42:51;;;;;;;6.05;1.30;;;;;;;4.70;61.24;100650.09;4879374;28;112824;-77
2023/03/11 00:45:19;;;;;;;8.52;1.40;;;;;;;4.66;61.08;100658.94;4872703;28;123803;-77
2023/03/11 00:47:46;;;;;;;4.90;1.10;;;;;;;4.63;60.75;100659.00;4887074;28;122570;-77
2023/03/11 00:50:17;;;;;;;7.07;1.30;;;;;;;4.62;61.00;100657.28;4873247;28;113552;-77
2023/03/11 00:52:46;;;;;;;8.73;1.38;;;;;;;4.59;61.18;100663.44;4887692;28;113845;-76
2023/03/11 00:55:20;;;;;;;7.80;1.38;;;;;;;4.57;60.81;100661.78;4876132;28;122294;-77
2023/03/11 00:57:50;;;;;;;7.43;1.25;;;;;;;4.56;60.78;100670.53;4891314;28;124297;-77
2023/03/11 01:00:20;;;;;;;5.00;1.50;;;;;;;4.54;61.02;100659.22;4878365;28;113773;-77
2023/03/11 01:02:47;;;;;;;8.15;1.40;;;;;;;4.52;61.07;100668.88;4887541;28;115551;-77
2023/03/11 01:05:14;;;;;;;8.35;1.40;;;;;;;4.49;60.86;100669.81;4885068;28;124872;-76
2023/03/11 01:07:41;;;;;;;4.45;1.52;;;;;;;4.47;60.65;100667.22;4872266;28;123537;-77
2023/03/11 01:10:09;;;;;;;3.50;1.10;;;;;;;4.44;60.54;100669.91;4872313;28;114251;-77
2023/03/11 01:12:37;;;;;;;5.28;1.35;;;;;;;4.43;60.69;100673.44;4872709;28;113980;-77
2023/03/11 01:15:05;;;;;;;5.40;1.27;;;;;;;4.40;60.55;100678.75;4875081;28;123893;-79
2023/03/11 01:17:32;;;;;;;4.18;1.23;;;;;;;4.38;60.43;100677.91;4872902;28;124590;-76
2023/03/11 01:20:00;;;;;;;7.93;1.45;;;;;;;4.36;60.50;100681.47;4861874;28;113259;-76
2023/03/11 01:22:27;;;;;;;4.15;1.15;;;;;;;4.35;60.60;100691.13;4872814;28;112792;-76
2023/03/11 01:24:54;;;;;;;4.40;1.15;;;;;;;4.33;60.52;100692.88;4884039;28;124715;-75
2023/03/11 01:27:22;;;;;;;7.55;1.42;;;;;;;4.32;60.74;100696.41;4880876;28;124159;-76
2023/03/11 01:29:49;;;;;;;4.70;1.40;;;;;;;4.31;60.58;100702.53;4890230;28;113996;-76
2023/03/11 01:32:17;;;;;;;2.85;0.95;;;;;;;4.28;60.17;100700.00;4891161;28;113747;-76
2023/03/11 01:34:45;;;;;;;6.82;1.52;;;;;;;4.26;60.28;100709.66;4889816;28;123401;-76
2023/03/11 01:37:12;;;;;;;4.13;1.00;;;;;;;4.24;60.39;100711.44;4875067;28;124225;-76
2023/03/11 01:39:39;;;;;;;8.88;1.50;;;;;;;4.22;60.22;100705.34;4890334;28;114657;-75
2023/03/11 01:42:06;;;;;;;5.47;1.25;;;;;;;4.21;60.29;100706.25;4872687;28;113503;-76
2023/03/11 01:44:33;;;;;;;6.05;1.35;;;;;;;4.23;60.13;100712.34;4873532;28;123961;-76
2023/03/11 01:47:01;;;;;;;6.97;1.30;;;;;;;4.21;60.26;100708.88;4872214;28;123288;-77
2023/03/11 01:49:33;;;;;;;7.22;1.40;;;;;;;4.20;60.48;100697.53;4884309;28;113915;-76
2023/03/11 01:52:06;;;;;;;7.10;1.40;;;;;;;4.22;60.40;100707.97;4884250;28;113806;-77
2023/03/11 01:54:39;;;;;;;4.43;1.10;;;;;;;4.23;60.37;100712.34;4858876;28;123270;-76
2023/03/11 01:57:12;;;;;;;6.22;1.00;;;;;;;4.23;60.33;100712.34;4884841;28;123695;-77
2023/03/11 01:59:45;;;;;;;7.13;1.38;;;;;;;4.22;60.35;100710.59;4876403;28;114283;-77
2023/03/11 02:02:24;;;;;;;7.00;1.10;;;;;;;4.23;60.12;100701.84;4859696;28;114517;-77
2023/03/11 02:04:53;;;;;;;4.50;1.02;;;;;;;4.25;60.32;100713.16;4881794;28;123801;-77
2023/03/11 02:07:23;;;;;;;3.53;0.82;;;;;;;4.25;60.02;100719.25;4888921;28;123706;-77
2023/03/11 02:09:50;;;;;;;5.95;1.30;;;;;;;4.26;60.03;100712.28;4880009;28;113817;-77
2023/03/11 02:12:18;;;;;;;3.70;1.02;;;;;;;4.29;60.25;100720.06;4888083;28;113143;-76
2023/03/11 02:14:49;;;;;;;2.22;0.80;;;;;;;4.29;60.02;100714.81;4875352;28;123244;-76
2023/03/11 02:17:17;;;;;;;4.32;1.10;;;;;;;4.30;60.14;100713.94;4874407;28;122973;-77
2023/03/11 02:20:20;;;;;;;5.15;0.90;;;;;;;4.29;59.78;100712.19;4881519;28;114133;-76
2023/03/11 02:22:48;;;;;;;5.22;0.88;;;;;;;4.30;60.06;100719.19;4880416;28;113590;-76
2023/03/11 02:25:42;;;;;;;5.47;1.27;;;;;;;4.29;59.82;100728.81;4873683;28;123236;-76
2023/03/11 02:28:12;;;;;;;3.83;0.93;;;;;;;4.30;59.83;100727.03;4874257;28;123702;-76
2023/03/11 02:30:42;;;;;;;4.35;0.90;;;;;;;4.32;60.01;100727.03;4888478;28;113859;-77
2023/03/11 02:33:11;;;;;;;6.22;1.15;;;;;;;4.31;59.97;100731.38;4889838;28;113861;-77
2023/03/11 02:35:38;;;;;;;7.95;1.17;;;;;;;4.32;59.74;100730.50;4891522;28;124530;-76
2023/03/11 02:38:05;;;;;;;6.90;1.00;;;;;;;4.34;59.69;100726.09;4877264;28;123193;-76
2023/03/11 02:40:47;;;;;;;4.32;1.08;;;;;;;4.35;59.81;100726.94;4871158;28;113951;-76
2023/03/11 02:43:22;;;;;;;6.53;1.02;;;;;;;4.35;59.57;100733.06;4875342;28;114081;-76
2023/03/11 02:45:49;;;;;;;5.53;1.35;;;;;;;4.36;59.70;100734.78;4890378;28;123827;-77
2023/03/11 02:48:17;;;;;;;2.08;0.90;;;;;;;4.37;59.52;100733.00;4889806;28;123085;-76
2023/03/11 02:50:45;;;;;;;3.63;0.95;;;;;;;4.37;59.52;100731.28;4878558;28;114416;-76
2023/03/11 02:53:14;;;;;;;3.42;0.98;;;;;;;4.38;59.40;100732.97;4887595;28;114678;-77
2023/03/11 02:55:41;;;;;;;4.03;1.38;;;;;;;4.38;59.32;100726.88;4881095;28;123302;-76
2023/03/11 02:58:09;;;;;;;3.75;1.05;;;;;;;4.38;59.55;100727.72;4871382;28;124167;-76
2023/03/11 03:00:36;;;;;;;4.45;1.30;;;;;;;4.39;59.37;100729.47;4870266;28;113577;-76
2023/03/11 03:03:06;;;;;;;6.15;1.08;;;;;;;4.39;59.57;100729.47;4879778;28;113154;-76
2023/03/11 03:05:33;;;;;;;4.30;1.27;;;;;;;4.39;59.08;100729.47;4887228;28;123573;-76
2023/03/11 03:08:01;;;;;;;5.80;1.20;;;;;;;4.39;59.47;100729.47;4864157;28;123486;-76
2023/03/11 03:10:29;;;;;;;6.25;1.30;;;;;;;4.39;59.08;100729.47;4858949;28;113681;-76
2023/03/11 03:12:57;;;;;;;5.32;1.10;;;;;;;4.39;59.36;100729.47;4878989;28;113758;-76
2023/03/11 03:15:24;;;;;;;6.88;1.25;;;;;;;4.39;59.19;100729.47;4889018;28;124295;-77
2023/03/11 03:17:52;;;;;;;6.82;1.20;;;;;;;4.39;58.89;100729.47;4889693;28;123225;-76
2023/03/11 03:20:21;;;;;;;4.68;1.05;;;;;;;4.40;59.37;100733.81;4890562;28;115269;-76
2023/03/11 03:22:52;;;;;;;5.18;1.10;;;;;;;4.39;59.04;100734.72;4890853;28;113100;-76
2023/03/11 03:25:22;;;;;;;3.80;1.25;;;;;;;4.39;59.04;100739.97;4873380;28;122622;-76
2023/03/11 03:27:50;;;;;;;4.47;1.20;;;;;;;4.39;59.05;100750.44;4881614;28;122935;-76
2023/03/11 03:30:18;;;;;;;8.55;1.20;;;;;;;4.39;59.04;100758.31;4888435;28;113451;-77
2023/03/11 03:32:46;;;;;;;3.95;1.15;;;;;;;4.39;59.31;100763.56;4879010;28;112265;-76
2023/03/11 03:35:15;;;;;;;5.32;1.30;;;;;;;4.40;59.04;100767.03;4882835;28;123582;-76
2023/03/11 03:38:06;;;;;;;5.80;1.10;;;;;;;4.40;59.11;100773.13;4870229;28;123642;-76
2023/03/11 03:40:33;;;;;;;2.45;1.10;;;;;;;4.40;59.21;100775.75;4862949;28;114633;-76
2023/03/11 03:43:03;;;;;;;5.25;1.05;;;;;;;4.41;58.97;100785.38;4873517;28;114177;-77
2023/03/11 03:45:32;;;;;;;8.05;1.40;;;;;;;4.41;59.28;100788.00;4870323;28;123630;-76
2023/03/11 03:47:59;;;;;;;4.97;0.93;;;;;;;4.42;58.99;100792.31;4873903;28;123422;-75
2023/03/11 03:50:30;;;;;;;5.95;1.10;;;;;;;4.41;58.78;100795.84;4870905;28;113366;-76
2023/03/11 03:52:57;;;;;;;6.30;1.23;;;;;;;4.42;59.11;100797.56;4883853;28;113228;-76
2023/03/11 03:55:25;;;;;;;6.72;1.02;;;;;;;4.41;59.00;100795.00;4885649;28;123388;-76
2023/03/11 03:57:53;;;;;;;2.40;1.00;;;;;;;4.41;59.06;100795.84;4875067;28;123081;-76
2023/03/11 04:00:24;;;;;;;5.85;1.15;;;;;;;4.41;58.84;100793.22;4886112;28;114462;-76
2023/03/11 04:02:57;;;;;;;3.67;1.00;;;;;;;4.43;58.75;100794.06;4866870;28;113246;-77
2023/03/11 04:05:32;;;;;;;3.80;1.05;;;;;;;4.43;58.73;100791.44;4877763;28;123310;-76
2023/03/11 04:07:59;;;;;;;4.07;1.15;;;;;;;4.44;58.95;100795.78;4873957;28;123459;-76
2023/03/11 04:10:27;;;;;;;6.10;1.17;;;;;;;4.43;58.98;100794.06;4873152;28;114370;-76
2023/03/11 04:12:54;;;;;;;4.55;1.30;;;;;;;4.43;58.91;100798.44;4880953;28;112240;-76
2023/03/11 04:15:22;;;;;;;5.22;1.30;;;;;;;4.43;58.57;100804.56;4894000;28;124187;-76
2023/03/11 04:17:49;;;;;;;3.83;1.25;;;;;;;4.41;58.84;100806.34;4883449;28;123811;-76
2023/03/11 04:20:17;;;;;;;3.85;1.08;;;;;;;4.42;58.43;100808.06;4870393;28;114010;-76
2023/03/11 04:22:47;;;;;;;5.85;1.27;;;;;;;4.40;58.55;100809.84;4882610;28;115169;-76
2023/03/11 04:25:15;;;;;;;4.65;1.40;;;;;;;4.40;58.73;100815.09;4891342;28;125686;-76
2023/03/11 04:27:44;;;;;;;4.22;1.23;;;;;;;4.38;58.81;100816.88;4885078;28;124017;-76
2023/03/11 04:30:13;;;;;;;6.10;1.00;;;;;;;4.38;58.38;100822.13;4857845;28;114447;-76
2023/03/11 04:32:42;;;;;;;5.03;1.20;;;;;;;4.34;58.63;100817.84;4873076;28;114931;-76
2023/03/11 04:35:10;;;;;;;5.60;0.90;;;;;;;4.32;58.62;100822.25;4873420;28;123162;-77
2023/03/11 04:37:38;;;;;;;4.22;0.70;;;;;;;4.30;58.65;100829.28;4857534;28;123847;-76
2023/03/11 04:40:06;;;;;;;3.67;0.90;;;;;;;4.27;58.37;100834.59;4890588;28;113958;-76
2023/03/11 04:42:34;;;;;;;5.10;0.90;;;;;;;4.24;58.40;100830.28;4892523;28;114151;-76
2023/03/11 04:45:01;;;;;;;5.50;1.08;;;;;;;4.21;58.54;100826.84;4873322;28;123312;-76
2023/03/11 04:47:30;;;;;;;2.97;0.80;;;;;;;4.18;58.35;100824.28;4885849;28;123097;-76
2023/03/11 04:49:58;;;;;;;4.07;0.77;;;;;;;4.15;58.69;100824.34;4863846;28;112431;-76
2023/03/11 04:52:25;;;;;;;3.97;0.98;;;;;;;4.12;58.35;100824.41;4875139;28;113168;-76
2023/03/11 04:54:53;;;;;;;3.30;1.10;;;;;;;4.08;58.42;100819.19;4890620;28;123321;-76
2023/03/11 04:57:20;;;;;;;5.78;1.10;;;;;;;4.07;58.85;100827.97;4891728;28;123314;-74
2023/03/11 04:59:48;;;;;;;1.95;0.77;;;;;;;4.05;58.50;100828.88;4890878;28;113962;-74
2023/03/11 05:02:15;;;;;;;3.85;1.17;;;;;;;4.02;58.69;100837.66;4890894;28;113295;-75
2023/03/11 05:04:50;;;;;;;3.72;0.95;;;;;;;3.99;58.56;100835.09;4889901;28;124500;-74
2023/03/11 05:07:17;;;;;;;4.43;1.00;;;;;;;3.97;58.56;100836.88;4890026;28;123240;-76
2023/03/11 05:09:45;;;;;;;4.18;0.95;;;;;;;3.95;58.48;100836.03;4890460;28;113530;-74
2023/03/11 05:12:12;;;;;;;2.55;1.02;;;;;;;3.92;58.72;100833.50;4876837;28;113564;-74
2023/03/11 05:14:42;;;;;;;3.20;1.08;;;;;;;3.90;58.42;100830.03;4891314;28;123405;-76
2023/03/11 05:17:11;;;;;;;2.33;1.10;;;;;;;3.88;58.73;100837.03;4891013;28;124141;-74
2023/03/11 05:19:38;;;;;;;3.10;1.00;;;;;;;3.84;58.84;100836.25;4874117;28;114536;-75
2023/03/11 05:22:11;;;;;;;3.28;0.75;;;;;;;3.82;58.72;100847.63;4889901;28;113937;-76
2023/03/11 05:24:38;;;;;;;7.85;1.00;;;;;;;3.80;58.79;100849.41;4875166;28;123638;-74
2023/03/11 05:27:06;;;;;;;5.38;1.05;;;;;;;3.78;58.63;100857.28;4890278;28;123464;-74
2023/03/11 05:29:35;;;;;;;2.38;1.08;;;;;;;3.77;58.68;100859.94;4890458;28;114312;-75
2023/03/11 05:32:03;;;;;;;4.50;0.80;;;;;;;3.76;58.60;100855.59;4889417;28;114888;-75
2023/03/11 05:34:30;;;;;;;6.82;1.30;;;;;;;3.75;58.85;100866.94;4890560;28;123775;-75
2023/03/11 05:36:58;;;;;;;2.55;0.98;;;;;;;3.73;58.38;100858.25;4874058;28;123143;-75
2023/03/11 05:39:28;;;;;;;2.67;0.80;;;;;;;3.73;58.86;100853.91;4890590;28;113479;-75
2023/03/11 05:41:56;;;;;;;5.45;0.90;;;;;;;3.73;58.78;100855.63;4892562;28;114422;-75
2023/03/11 05:44:23;;;;;;;1.83;0.85;;;;;;;3.72;59.06;100859.16;4889847;28;123598;-75
2023/03/11 05:46:51;;;;;;;3.47;0.88;;;;;;;3.71;58.77;100860.91;4875299;28;123837;-75
2023/03/11 05:49:20;;;;;;;3.40;1.17;;;;;;;3.70;58.97;100860.03;4890043;28;114378;-75
2023/03/11 05:51:49;;;;;;;4.00;1.10;;;;;;;3.70;58.52;100869.66;4889893;28;114157;-73
2023/03/11 05:54:17;;;;;;;4.20;1.02;;;;;;;3.68;58.80;100872.28;4890398;28;124319;-73
2023/03/11 05:56:47;;;;;;;6.63;1.20;;;;;;;3.66;58.55;100874.06;4889260;28;123045;-73
2023/03/11 05:59:16;;;;;;;6.95;1.13;;;;;;;3.66;58.52;100881.94;4888224;28;113757;-73
2023/03/11 06:01:46;;;;;;;6.25;1.20;;;;;;;3.65;58.50;100888.03;4888932;28;113408;-73
2023/03/11 06:04:13;;;;;;;7.28;1.13;;;;;;;3.64;58.73;100886.34;4874763;28;124192;-73
2023/03/11 06:06:41;;;;;;;2.30;1.17;;;;;;;3.63;58.43;100900.31;4890149;28;123938;-73
2023/03/11 06:09:13;;;;;;;3.00;1.15;;;;;;;3.61;58.61;100899.47;4890246;28;116646;-73
2023/03/11 06:11:41;;;;;;;3.33;1.30;;;;;;;3.59;58.70;100898.63;4879183;28;114873;-73
2023/03/11 06:14:12;;;;;;;2.53;1.00;;;;;;;3.58;58.59;100904.78;4887882;28;123323;-73
2023/03/11 06:16:41;;;;;;;2.85;1.05;;;;;;;3.56;58.46;100903.94;4889305;28;124096;-73
2023/03/11 06:19:09;;;;;;;5.15;1.30;;;;;;;3.55;58.31;100911.81;4889504;28;114333;-73
2023/03/11 06:21:41;;;;;;;4.80;1.15;;;;;;;3.54;58.46;100903.06;4892255;28;114136;-72
2023/03/11 06:24:08;;;;;;;7.10;1.42;;;;;;;3.53;58.63;100903.97;4889537;28;122777;-73
2023/03/11 06:26:36;;;;;;;1.95;1.23;;;;;;;3.50;58.43;100909.25;4889157;28;123483;-72
2023/03/11 06:29:03;;;;;;;2.17;1.00;;;;;;;3.49;58.55;100912.75;4856333;28;113394;-74
2023/03/11 06:31:31;;;;;;;3.08;0.98;;;;;;;3.47;58.70;100910.16;4882858;28;114168;-74
2023/03/11 06:34:05;;;;;;;2.60;1.05;;;;;;;3.48;58.41;100918.88;4888812;28;123708;-73
2023/03/11 06:36:33;;;;;;;1.60;0.90;;;;;;;3.48;58.57;100921.50;4873378;28;123199;-75
2023/03/11 06:39:00;;;;;;;5.50;1.45;;;;;;;3.48;59.00;100926.72;4892437;28;114032;-72
2023/03/11 06:41:28;;;;;;;2.75;1.00;;;;;;;3.48;58.38;100926.72;4874486;28;113674;-73
2023/03/11 06:43:58;;;;;;;5.47;1.40;;;;;;;3.49;58.56;100928.47;4890052;28;123279;-73
2023/03/11 06:46:27;;;;;;;5.00;1.40;;;;;;;3.48;58.66;100937.19;4889044;28;123178;-73
2023/03/11 06:48:55;;;;;;;3.60;1.20;;;;;;;3.49;58.55;100949.41;4874595;28;113893;-72
2023/03/11 06:51:23;;;;;;;4.10;1.38;;;;;;;3.49;58.52;100944.19;4890356;28;113295;-73
2023/03/11 06:53:52;;;;;;;4.32;1.38;;;;;;;3.49;58.71;100946.78;4889899;28;123372;-72
2023/03/11 06:56:22;;;;;;;2.70;1.00;;;;;;;3.54;58.38;100952.81;4893171;28;123007;-73
2023/03/11 06:58:54;;;;;;;7.30;1.02;;;;;;;3.58;58.54;100959.75;4888894;28;114434;-73
2023/03/11 07:01:26;;;;;;;5.50;1.30;;;;;;;3.63;59.05;100968.41;4886990;28;113988;-73
2023/03/11 07:03:56;;;;;;;4.05;1.30;;;;;;;3.73;59.26;100974.41;4888427;28;123717;-73
2023/03/11 07:06:26;;;;;;;4.55;1.33;;;;;;;3.85;59.33;100973.34;4889517;28;123108;-73
2023/03/11 07:09:00;;;;;;;3.40;1.80;;;;;;;3.96;59.52;100981.91;4889577;28;113266;-73
2023/03/11 07:11:29;;;;;;;3.60;1.40;;;;;;;4.09;59.24;100983.44;4882034;28;113968;-73
2023/03/11 07:14:04;;;;;;;2.78;1.20;;;;;;;4.24;59.49;100984.09;4885062;28;124569;-73
2023/03/11 07:16:37;;;;;;;5.05;1.50;;;;;;;4.36;59.61;100978.63;4876264;28;125446;-73
2023/03/11 07:19:11;;;;;;;4.18;1.38;;;;;;;4.49;59.36;100990.63;4886833;28;114146;-73
2023/03/11 07:21:38;;;;;;;4.03;1.30;;;;;;;4.63;59.32;100990.41;4891719;28;113854;-74
2023/03/11 07:24:06;;;;;;;6.05;1.60;;;;;;;4.76;59.17;100985.75;4875251;28;123423;-73
2023/03/11 07:26:34;;;;;;;3.40;1.23;;;;;;;4.88;59.41;100992.56;4889466;28;124215;-73
2023/03/11 07:29:02;;;;;;;2.80;1.23;;;;;;;5.01;59.33;100995.78;4876586;28;113132;-73
2023/03/11 07:31:32;;;;;;;6.97;1.30;;;;;;;5.12;58.93;100999.06;4882403;28;114675;-72
2023/03/11 07:34:01;;;;;;;4.22;1.40;;;;;;;5.25;58.77;101010.19;4899216;28;124242;-72
2023/03/11 07:36:29;;;;;;;3.75;1.10;;;;;;;5.34;58.70;101006.53;4896577;28;123296;-72
2023/03/11 07:38:59;;;;;;;2.90;1.25;;;;;;;5.42;58.63;101005.44;4895792;28;114425;-72
2023/03/11 07:41:33;;;;;;;3.33;1.20;;;;;;;5.52;58.60;101003.50;4894841;28;113534;-72
2023/03/11 07:44:01;;;;;;;1.77;1.00;;;;;;;5.62;58.85;100999.78;4893901;28;126156;-72
2023/03/11 07:46:30;;;;;;;2.15;0.95;;;;;;;5.72;58.50;101015.34;4894238;28;123564;-72
2023/03/11 07:48:57;;;;;;;3.92;1.23;;;;;;;5.80;58.26;101013.38;4891616;28;116027;-72
2023/03/11 07:51:27;;;;;;;5.82;1.40;;;;;;;5.87;58.18;101014.13;4891566;28;115430;-72
2023/03/11 07:53:56;;;;;;;3.17;1.35;;;;;;;5.95;58.60;101006.91;4890981;28;125215;-72
2023/03/11 07:56:25;;;;;;;6.90;1.40;;;;;;;6.05;58.00;101013.75;4893020;28;127274;-72
2023/03/11 07:58:53;;;;;;;3.10;1.10;;;;;;;6.11;58.10;101007.47;4886010;28;114878;-72
2023/03/11 08:01:22;;;;;;;6.30;1.35;;;;;;;6.17;57.73;101018.69;4888545;28;114037;-73
2023/03/11 08:03:55;;;;;;;8.10;1.30;;;;;;;6.20;57.85;101023.03;4893696;28;124519;-71
2023/03/11 08:06:26;;;;;;;7.88;1.70;;;;;;;6.23;57.51;101033.47;4886390;28;124210;-72
2023/03/11 08:08:53;;;;;;;6.30;1.95;;;;;;;6.24;57.35;101029.94;4882829;28;113983;-72
2023/03/11 08:11:21;;;;;;;7.43;2.30;;;;;;;6.23;57.53;101036.09;4883429;28;113892;-72
2023/03/11 08:13:50;;;;;;;7.32;2.50;;;;;;;6.25;57.82;101031.66;4876225;28;124179;-73
2023/03/11 08:16:20;;;;;;;6.60;2.22;;;;;;;6.28;57.47;101031.59;4883995;28;123723;-72
2023/03/11 08:18:49;;;;;;;6.15;2.33;;;;;;;6.30;56.90;101029.78;4876603;28;113703;-72
2023/03/11 08:21:21;;;;;;;5.22;2.10;;;;;;;6.33;57.35;101034.97;4886052;28;114051;-73
2023/03/11 08:23:49;;;;;;;5.72;2.00;;;;;;;6.33;57.11;101040.25;4876743;28;123046;-73
2023/03/11 08:26:21;;;;;;;11.05;2.08;;;;;;;6.35;56.98;101043.69;4876543;28;124650;-72
2023/03/11 08:28:49;;;;;;;4.70;1.98;;;;;;;6.36;57.29;101050.69;4882298;28;115175;-72
2023/03/11 08:31:24;;;;;;;9.63;2.05;;;;;;;6.39;57.18;101050.59;4893865;28;113902;-72
2023/03/11 08:33:53;;;;;;;4.57;1.80;;;;;;;6.43;56.85;101047.00;4881555;28;124781;-72
2023/03/11 08:36:20;;;;;;;6.90;2.05;;;;;;;6.48;56.86;101048.63;4893159;28;124183;-72
2023/03/11 08:38:47;;;;;;;5.85;2.10;;;;;;;6.51;56.86;101043.31;4891461;28;115343;-72
2023/03/11 08:41:15;;;;;;;7.10;2.08;;;;;;;6.54;56.81;101033.59;4876999;28;114470;-72
2023/03/11 08:43:43;;;;;;;4.07;1.17;;;;;;;6.59;56.73;101041.34;4873884;28;124059;-72
2023/03/11 08:46:21;;;;;;;5.30;1.35;;;;;;;6.65;56.36;101041.22;4874340;28;123283;-72
2023/03/11 08:48:48;;;;;;;4.32;1.40;;;;;;;6.71;56.66;101048.94;4873292;28;113894;-72
2023/03/11 08:51:16;;;;;;;4.57;1.27;;;;;;;6.76;56.42;101047.06;4876869;28;114051;-72
2023/03/11 08:53:43;;;;;;;5.57;1.38;;;;;;;6.83;56.33;101045.97;4885522;28;123839;-73
2023/03/11 08:56:10;;;;;;;4.00;1.45;;;;;;;6.92;56.73;101049.28;4861621;28;125638;-72
2023/03/11 08:58:37;;;;;;;3.40;1.25;;;;;;;7.00;56.33;101058.69;4886601;28;114274;-72
2023/03/11 09:01:06;;;;;;;3.58;1.15;;;;;;;7.08;56.08;101063.75;4873319;28;112959;-73
2023/03/11 09:03:34;;;;;;;4.25;1.10;;;;;;;7.17;56.14;101071.41;4873740;28;123771;-72
2023/03/11 09:06:05;;;;;;;5.38;1.40;;;;;;;7.25;55.71;101072.97;4890488;28;125220;-72
2023/03/11 09:08:32;;;;;;;3.03;1.10;;;;;;;7.32;55.71;101077.16;4890984;28;114189;-73
2023/03/11 09:10:59;;;;;;;3.17;1.10;;;;;;;7.38;55.84;101074.34;4886161;28;114921;-73
2023/03/11 09:13:27;;;;;;;3.22;0.90;;;;;;;7.46;55.57;101077.66;4884215;28;123817;-72
2023/03/11 09:15:55;;;;;;;3.60;1.05;;;;;;;7.53;55.67;101073.91;4887489;28;124281;-72
2023/03/11 09:18:22;;;;;;;3.33;1.02;;;;;;;7.59;55.26;101073.75;4872787;28;113353;-73
2023/03/11 09:20:49;;;;;;;1.80;1.00;;;;;;;7.67;55.34;101075.31;4874026;28;114694;-73
2023/03/11 09:23:17;;;;;;;3.97;1.25;;;;;;;7.72;55.14;101078.66;4874234;28;124208;-73
2023/03/11 09:25:44;;;;;;;4.50;1.13;;;;;;;7.79;54.73;101074.94;4874184;28;124058;-73
2023/03/11 09:28:11;;;;;;;7.05;1.23;;;;;;;7.86;54.77;101081.75;4873625;28;115989;-73
2023/03/11 09:30:38;;;;;;;2.17;0.95;;;;;;;7.94;55.04;101079.75;4892200;28;115273;-73
2023/03/11 09:33:05;;;;;;;3.55;1.10;;;;;;;8.02;54.95;101081.28;4891996;28;124308;-73
2023/03/11 09:35:32;;;;;;;3.55;1.05;;;;;;;8.06;54.59;101088.19;4892345;28;123817;-73
2023/03/11 09:37:59;;;;;;;2.92;0.98;;;;;;;8.15;54.46;101087.91;4892997;28;114355;-73
2023/03/11 09:40:43;;;;;;;2.95;0.93;;;;;;;8.19;54.13;101084.25;4891638;28;112777;-73
2023/03/11 09:43:23;;;;;;;4.55;1.00;;;;;;;8.24;54.04;101087.63;4876139;28;123093;-73
2023/03/11 09:46:00;;;;;;;2.75;0.82;;;;;;;8.29;53.76;101085.72;4877960;28;123763;-73
2023/03/11 09:48:38;;;;;;;2.78;0.70;;;;;;;8.33;53.79;101095.25;4891218;28;113976;-73
2023/03/11 09:51:36;;;;;;;4.30;0.90;;;;;;;8.38;53.92;101100.38;4914641;28;114807;-72
2023/03/11 09:54:09;;;;;;;3.85;1.00;;;;;;;8.46;53.76;101098.41;4898999;28;124932;-73
2023/03/11 09:56:37;;;;;;;2.10;0.90;;;;;;;8.54;53.66;101106.06;4892896;28;124031;-73
2023/03/11 09:59:16;;;;;;;3.35;0.93;;;;;;;8.58;53.20;101097.13;4892375;28;114035;-73
2023/03/11 10:01:46;;;;;;;1.25;0.63;;;;;;;8.64;53.27;101106.63;4890492;28;113709;-73
2023/03/11 10:04:29;;;;;;;1.17;0.57;;;;;;;8.65;52.91;101101.31;4887435;28;124053;-73
2023/03/11 10:07:00;;;;;;;4.20;0.80;;;;;;;8.67;52.42;101096.84;4889765;28;123215;-73
2023/03/11 10:09:35;;;;;;;2.60;0.73;;;;;;;8.70;52.49;101102.03;4889031;28;113944;-73
2023/03/11 10:12:14;;;;;;;4.05;1.00;;;;;;;8.71;51.79;101098.47;4876340;28;113630;-73
2023/03/11 10:15:06;;;;;;;3.72;0.77;;;;;;;8.69;51.89;101097.66;4880644;28;124418;-73
2023/03/11 10:18:01;;;;;;;1.58;0.60;;;;;;;8.73;52.14;101098.41;4874640;28;124604;-73
2023/03/11 10:20:59;;;;;;;2.25;0.60;;;;;;;8.75;52.03;101093.94;4885228;28;114452;-72
2023/03/11 10:23:45;;;;;;;1.67;0.73;;;;;;;8.79;51.87;101100.00;4874065;28;114448;-73
2023/03/11 10:26:15;;;;;;;;;;;;;;;8.77;52.57;101095.59;4892540;28;123933;-72
2023/03/11 10:28:53;;;;;;;2.20;0.57;;;;;;;8.80;51.87;101106.97;4891296;28;126432;-72
2023/03/11 10:31:32;;;;;;;0.80;0.50;;;;;;;8.79;51.65;101110.56;4889147;28;114548;-73
2023/03/11 10:34:03;;;;;;;2.50;0.80;;;;;;;8.83;51.34;101112.16;4880408;28;114646;-74
2023/03/11 10:36:39;;;;;;;1.20;0.75;;;;;;;8.84;50.93;101113.91;4883153;28;123916;-73
2023/03/11 10:39:10;;;;;;;3.55;0.70;;;;;;;8.90;50.57;101111.06;4888573;28;123523;-73
2023/03/11 10:41:51;;;;;;;1.88;0.60;;;;;;;8.95;50.15;101111.78;4888630;28;114633;-75
2023/03/11 10:44:24;;;;;;;1.13;0.60;;;;;;;8.98;50.38;101116.94;4883548;28;114046;-74
2023/03/11 10:46:51;;;;;;;3.42;0.55;;;;;;;9.02;50.39;101117.69;4886429;28;124164;-73
2023/03/11 10:49:18;;;;;;;3.17;0.75;;;;;;;9.05;50.00;101118.44;4884713;28;123989;-73
2023/03/11 10:51:48;;;;;;;4.10;0.82;;;;;;;9.10;49.82;101116.53;4885651;28;114232;-73
2023/03/11 10:54:33;;;;;;;1.35;0.65;;;;;;;9.19;50.12;101114.47;4881249;28;114029;-73
2023/03/11 10:57:02;;;;;;;2.78;0.70;;;;;;;9.27;49.53;101123.88;4893094;28;123650;-73
2023/03/11 10:59:45;;;;;;;1.35;0.80;;;;;;;9.30;49.14;101117.59;4875876;28;124227;-73
2023/03/11 11:02:52;;;;;;;2.78;0.63;;;;;;;9.34;49.25;101113.91;4875083;28;115053;-73
2023/03/11 11:05:27;;;;;;;1.80;0.65;;;;;;;9.41;49.30;101115.44;4853047;28;112709;-73
2023/03/11 11:08:12;;;;;;;1.05;0.50;;;;;;;9.47;49.83;101115.22;4878553;28;123396;-75
2023/03/11 11:10:51;;;;;;;3.83;0.80;;;;;;;9.55;49.58;101113.16;4878414;28;123849;-73
2023/03/11 11:13:20;;;;;;;2.63;0.77;;;;;;;9.65;49.51;101107.53;4884789;28;114963;-73
2023/03/11 11:16:00;;;;;;;2.53;0.50;;;;;;;9.72;49.36;101098.47;4882055;28;115717;-73
2023/03/11 11:18:32;;;;;;;4.53;0.77;;;;;;;9.80;49.71;101101.69;4878992;28;123822;-73
2023/03/11 11:21:12;;;;;;;2.45;0.80;;;;;;;9.86;49.26;101112.03;4878121;28;122970;-74
2023/03/11 11:23:47;;;;;;;2.58;0.70;;;;;;;9.90;48.89;101102.19;4884450;28;114244;-72
2023/03/11 11:26:25;;;;;;;2.80;0.60;;;;;;;9.93;48.72;101113.53;4892666;28;114201;-74
2023/03/11 11:29:08;;;;;;;1.35;0.60;;;;;;;9.98;48.44;101104.53;4883423;28;125503;-74
2023/03/11 11:31:38;;;;;;;2.03;0.90;;;;;;;9.99;48.56;101100.97;4883136;28;124941;-74
2023/03/11 11:34:27;;;;;;;1.48;0.75;;;;;;;10.01;48.55;101104.44;4877995;28;114204;-74
2023/03/11 11:37:01;;;;;;;1.15;0.65;;;;;;;10.05;48.42;101111.31;4881897;28;113560;-74
2023/03/11 11:39:31;;;;;;;1.10;0.70;;;;;;;10.10;48.67;101114.66;4891460;28;124126;-74